Newton Poppleford, United Kingdom
Current Conditions -  °F | °C
As of 9:50 PM on Thursday 23 Oct 2014 (Local Time) from EGTE Reporting Station
Scattered Clouds Scattered Clouds  
Wind Chill: 57°   Ceiling: Unl
Heat Index: 57°   Visibility: 6mi
Dew Point: 54°   Wind: 7mph
Humidity: 88%   Direction: 200°SSW
Pressure: 30.03"   Gusts: NA
Location:  50.7°N, 3.3°W
Report Text: EGTE 232050Z 20006KT 9999 SCT035 14/12 Q1017
Loading
Personal Weather Stations






























Interactive Weather Map New forecast layout! Learn more

10-Day Weather Forecast

Advertisements
Track Severe Weather on mobile